Vilanova de Sau





Hora UTC 21:05
Temperatura 7.4 ºC
Humitat 94.9 %
Pressió 1014.2 hPa
Pluja 0.8 mm
Velocitat vent 3.3 km/h
Direcció vent N
Radiació solar 0.0 W/m²
Fuel 199.3 %

Dades diàries 2020-03-31



Hora UTC (hivern +1h; estiu +2h)
Temperatura (ºC) Humitat (%) Pressió (hPa) Velocitat vent (km/h) Precipitació (mm) Fuel (%) Radiació solar (W/m²)
Hora UTC Aire Humitat Pressió Vel. Dir. Vel. Max Dir. Intent. màx 5 min. Fuel Rad. Sol.
00:05 5.5 97.5 1012.2 0.0 NNE 0.0 NW 0.0 244.5 0.0
00:10 5.5 97.5 1012.2 0.2 WNW 6.1 WNW 0.0 244.3 0.0
00:15 5.5 97.4 1012.1 0.6 WNW 6.1 W 0.0 244.1 0.0
00:20 5.6 97.3 1012.2 0.1 WNW 6.1 WNW 0.0 243.8 0.0
00:25 5.6 97.2 1012.2 0.1 WNW 6.1 WNW 0.0 243.5 0.0
00:30 5.7 97.0 1012.2 0.0 NNE 0.0 W 0.0 243.2 0.0
00:35 5.7 96.7 1012.2 0.0 NNE 0.0 W 0.0 242.9 0.0
00:40 5.7 96.4 1012.2 0.0 NNE 0.0 WSW 0.0 242.6 0.0
00:45 5.8 96.1 1012.1 0.0 NNE 0.0 W 0.0 242.3 0.0
00:50 5.9 95.5 1012.1 0.0 NNE 0.0 WNW 0.0 242.0 0.0
00:55 6.0 95.3 1012.0 0.0 NNE 0.0 NNW 0.0 241.7 0.0
01:00 5.9 95.3 1012.0 0.0 NNE 0.0 SSW 0.0 241.6 0.0
01:05 5.9 95.3 1011.9 0.0 NNE 0.0 N 0.0 241.4 0.0
01:10 6.0 95.4 1011.9 0.0 NNE 0.0 SSW 0.0 241.4 0.0
01:15 6.0 95.5 1011.9 0.0 NNE 0.0 WSW 0.0 241.3 0.0
01:20 5.9 95.4 1011.8 2.4 ENE 11.5 E 0.0 241.1 0.0
01:25 6.0 94.9 1011.8 0.0 NNE 0.0 ESE 0.0 240.8 0.0
01:30 6.0 95.0 1011.8 0.0 NNE 0.0 SSW 0.0 240.6 0.0
01:35 6.0 94.9 1011.7 0.0 NNE 0.0 SE 0.0 240.3 0.0
01:40 6.0 94.7 1011.7 0.4 ENE 6.1 NE 0.0 240.0 0.0
01:45 6.0 93.3 1011.6 1.9 ENE 11.5 NE 0.0 239.4 0.0
01:50 6.1 91.2 1011.5 7.2 ENE 16.9 ENE 0.0 238.5 0.0
01:55 6.1 90.2 1011.5 5.3 E 14.2 ENE 0.0 237.5 0.0
02:00 6.1 89.9 1011.5 5.1 E 16.9 E 0.0 236.6 0.0
02:05 6.1 89.4 1011.5 7.6 E 14.2 E 0.0 235.6 0.0
02:10 6.1 89.6 1011.5 2.8 E 11.5 ENE 0.0 234.7 0.0
02:15 6.1 89.8 1011.4 3.8 ENE 14.2 ENE 0.0 233.9 0.0
02:20 6.0 89.7 1011.5 2.7 ENE 11.5 E 0.0 233.1 0.0
02:25 6.0 89.1 1011.5 7.6 E 16.9 E 0.0 232.2 0.0
02:30 6.0 89.2 1011.5 5.0 E 14.2 ENE 0.0 0.0 0.0
02:35 6.0 89.2 1011.6 4.3 E 11.5 ENE 0.0 230.6 0.0
02:40 6.0 89.2 1011.5 5.4 E 11.5 E 0.0 229.7 0.0
02:45 5.9 89.4 1011.6 4.7 E 11.5 ENE 0.0 228.9 0.0
02:50 6.0 89.3 1011.6 4.8 E 14.2 ENE 0.0 228.2 0.0
02:55 6.0 89.4 1011.6 2.0 E 6.1 E 0.0 227.5 0.0
03:00 5.9 89.5 1011.6 1.5 ENE 8.8 ENE 0.0 226.9 0.0
03:05 5.9 89.8 1011.6 2.7 E 11.5 E 0.0 226.3 0.0
03:10 6.0 89.5 1011.6 3.1 E 11.5 NE 0.0 225.7 0.0
03:15 6.0 89.3 1011.6 4.7 ENE 11.5 NE 0.0 225.0 0.0
03:20 6.0 89.2 1011.5 3.6 ENE 14.2 ENE 0.0 224.3 0.0
03:25 6.0 89.1 1011.5 1.9 ENE 11.5 E 0.0 223.7 0.0
03:30 6.0 89.3 1011.5 3.4 ENE 11.5 ENE 0.0 223.2 0.0
03:35 5.9 89.2 1011.5 5.1 ENE 11.5 ENE 0.0 222.5 0.0
03:40 5.9 89.0 1011.5 4.1 ENE 11.5 ENE 0.0 221.8 0.0
03:45 5.9 88.8 1011.6 4.5 ENE 11.5 ENE 0.0 221.1 0.0
03:50 6.0 89.0 1011.6 0.3 ENE 6.1 ENE 0.0 220.5 0.0
03:55 5.9 89.2 1011.7 4.0 ENE 11.5 ENE 0.0 219.9 0.0
04:00 5.9 88.6 1011.7 6.5 ENE 14.2 E 0.0 219.3 0.0
04:05 6.0 88.5 1011.8 5.3 NE 11.5 NE 0.0 218.5 0.0
04:10 5.9 88.9 1011.8 6.8 NE 14.2 ENE 0.0 217.8 0.0
04:15 5.9 89.2 1011.8 4.7 ENE 11.5 NE 0.0 217.2 0.0
04:20 5.9 89.5 1011.7 4.2 ENE 11.5 E 0.0 216.6 0.0
04:25 5.8 89.4 1011.8 4.4 ENE 8.8 ENE 0.0 215.9 0.0
04:30 5.9 88.9 1011.8 5.3 ENE 11.5 E 0.0 215.3 0.0
04:35 5.9 88.6 1011.8 6.0 NE 11.5 NNE 0.0 214.6 0.0
04:40 5.8 88.6 1011.8 6.3 ENE 11.5 ENE 0.0 213.9 0.0
04:45 5.8 88.9 1011.8 6.4 NE 11.5 NNE 0.0 213.2 0.0
04:50 5.8 88.6 1011.7 5.0 ENE 11.5 ENE 0.0 212.6 0.0
04:55 5.8 88.9 1011.7 2.9 ENE 11.5 ENE 0.0 212.1 0.0
05:00 5.7 88.5 1011.6 9.0 ENE 16.9 ENE 0.0 211.4 0.0
05:05 5.7 88.3 1011.6 6.1 ENE 14.2 NE 0.0 210.7 0.0
05:10 5.7 88.6 1011.6 7.7 ENE 16.9 ENE 0.0 210.1 0.0
05:15 5.7 88.9 1011.5 4.9 ENE 11.5 ENE 0.0 209.4 0.0
05:20 5.7 88.9 1011.5 8.7 ENE 14.2 ENE 0.0 208.8 0.0
05:25 5.8 88.6 1011.5 6.5 ENE 14.2 ENE 0.0 208.2 0.0
05:30 5.8 88.6 1011.6 4.5 NE 11.5 NNE 0.0 207.6 0.1
05:35 5.9 88.1 1011.7 3.4 ENE 11.5 ENE 0.0 207.0 0.3
05:40 5.9 87.6 1011.8 7.1 NE 14.2 ENE 0.0 206.3 0.8
05:45 5.9 87.8 1011.9 7.3 NE 11.5 ENE 0.0 205.6 2.1
05:50 5.9 88.0 1012.0 7.7 NE 14.2 NE 0.0 204.9 3.6
05:55 5.9 88.1 1012.0 7.4 NE 14.2 NE 0.0 204.3 10.4
06:00 6.0 88.0 1012.1 7.9 NE 14.2 NE 0.0 203.5 23.5
06:05 6.1 87.4 1012.3 6.4 NE 11.5 NNE 0.0 202.8 33.6
06:10 6.2 87.4 1012.4 5.0 NE 11.5 ENE 0.0 202.0 35.0
06:15 6.2 86.6 1012.5 5.1 ENE 8.8 ENE 0.0 201.2 33.6
06:20 6.2 86.8 1012.5 5.8 ENE 11.5 E 0.0 200.4 39.0
06:25 6.3 86.8 1012.5 2.6 NE 6.1 NE 0.0 199.6 51.3
06:30 6.4 86.8 1012.5 1.9 NNE 8.8 N 0.0 199.0 52.9
06:35 6.5 86.8 1012.5 2.5 NE 6.1 NNE 0.0 198.2 50.8
06:40 6.5 86.6 1012.5 5.5 ENE 14.2 NE 0.0 197.3 52.3
06:45 6.5 86.4 1012.4 5.7 E 11.5 ESE 0.0 196.4 53.6
06:50 6.5 86.8 1012.3 6.2 ENE 14.2 ENE 0.0 195.8 64.3
06:55 6.6 86.9 1012.3 6.5 ENE 14.2 E 0.0 194.9 57.2
07:00 6.6 86.9 1012.3 4.2 ENE 11.5 E 0.0 194.0 47.9
07:05 6.6 86.7 1012.3 5.4 ENE 11.5 ENE 0.0 193.2 49.8
07:10 6.7 86.6 1012.3 3.4 ENE 8.8 ENE 0.0 192.4 70.2
07:15 6.8 86.7 1012.2 4.2 ENE 11.5 ENE 0.0 191.6 98.9
07:20 6.9 86.7 1012.2 2.2 ENE 8.8 ENE 0.0 190.7 109.6
07:25 7.0 86.4 1012.2 4.0 E 11.5 E 0.0 189.7 121.7
07:30 7.1 86.0 1012.3 3.2 E 8.8 ENE 0.0 188.6 127.7
07:35 7.2 86.1 1012.2 6.0 ENE 11.5 ENE 0.0 187.5 127.4
07:40 7.3 86.2 1012.2 4.1 ENE 8.8 ENE 0.0 186.4 127.2
07:45 7.5 85.7 1012.3 7.4 ENE 16.9 NE 0.0 185.4 103.9
07:50 7.4 85.1 1012.4 7.8 ENE 16.9 E 0.0 184.2 100.3
07:55 7.4 84.9 1012.4 9.9 ENE 16.9 E 0.0 183.1 161.1
08:00 7.6 85.2 1012.4 8.9 ENE 16.9 ENE 0.0 181.8 195.5
08:05 7.8 84.7 1012.4 8.7 ENE 16.9 NE 0.0 180.5 183.2
08:10 7.9 83.0 1012.4 12.5 ENE 19.6 ENE 0.0 178.9 204.2
08:15 8.0 82.9 1012.4 10.6 ENE 25.0 E 0.0 177.5 227.6
08:20 8.2 82.6 1012.5 10.2 ENE 19.6 ENE 0.0 176.0 306.9
08:25 8.5 82.0 1012.5 9.9 NE 22.3 NE 0.0 174.1 310.7
08:30 8.6 80.9 1012.4 11.5 NE 19.6 NNE 0.0 172.4 239.5
08:35 8.5 81.6 1012.4 7.4 NE 14.2 NE 0.0 170.9 231.9
08:40 8.7 81.8 1012.5 10.0 NE 19.6 NE 0.0 169.6 219.5
08:45 8.6 81.7 1012.4 9.0 NE 16.9 NE 0.0 168.2 206.3
08:50 8.6 82.3 1012.4 9.2 NE 16.9 NE 0.0 167.1 204.4
08:55 8.6 82.0 1012.5 9.9 NE 16.9 NE 0.0 165.9 160.0
09:00 8.6 82.7 1012.5 7.8 NE 16.9 ENE 0.0 165.0 123.1
09:05 8.5 82.6 1012.5 8.7 NE 16.9 NE 0.0 164.2 115.6
09:10 8.4 83.1 1012.5 8.7 NE 14.2 NE 0.0 163.4 126.4
09:15 8.4 83.1 1012.4 9.7 NE 16.9 NE 0.0 162.7 130.8
09:20 8.5 83.3 1012.4 9.3 NE 14.2 NE 0.0 162.1 126.7
09:25 8.4 83.4 1012.5 9.1 NE 14.2 NE 0.0 161.7 101.6
09:30 8.4 83.6 1012.6 10.3 ENE 19.6 ENE 0.0 161.3 91.5
09:35 8.4 84.0 1012.6 8.5 ENE 14.2 NE 0.0 161.0 91.8
09:40 8.4 84.3 1012.6 7.6 NE 16.9 NE 0.0 160.4 92.2
09:45 8.4 84.2 1012.6 8.6 NE 16.9 ENE 0.0 159.8 90.8
09:50 8.4 83.9 1012.6 9.5 NE 16.9 NE 0.0 159.1 89.5
09:55 8.4 84.2 1012.6 5.6 NE 11.5 NE 0.0 158.6 84.9
10:00 8.5 83.8 1012.7 7.2 NE 14.2 ENE 0.0 158.0 82.5
10:05 8.5 83.9 1012.7 6.6 NE 14.2 NE 0.0 157.3 87.3
10:10 8.5 84.2 1012.7 5.3 ENE 8.8 ENE 0.0 156.3 76.2
10:15 8.6 84.3 1012.7 5.0 NE 11.5 NNE 0.0 155.9 63.4
10:20 8.6 84.3 1012.8 5.5 NE 8.8 ENE 0.0 155.3 61.2
10:25 8.6 84.3 1012.8 4.9 NE 8.8 NNE 0.0 154.8 72.9
10:30 8.5 84.2 1012.8 6.9 ENE 14.2 ENE 0.0 154.2 82.7
10:35 8.5 84.2 1012.8 5.2 NE 11.5 NE 0.0 153.6 93.9
10:40 8.6 84.2 1012.7 7.0 ENE 11.5 ENE 0.0 153.0 106.4
10:45 8.7 84.5 1012.6 6.2 NE 11.5 NE 0.0 152.4 108.4
10:50 8.7 84.2 1012.6 7.2 ENE 14.2 NNE 0.0 151.8 107.7
10:55 8.8 83.4 1012.6 5.1 ENE 11.5 NE 0.0 151.1 107.2
11:00 8.8 83.8 1012.6 2.3 ENE 8.8 ENE 0.0 150.6 104.4
11:05 8.9 83.8 1012.6 5.2 ENE 11.5 ENE 0.0 150.3 105.9
11:10 8.9 84.2 1012.5 8.9 NE 16.9 NE 0.0 150.9 106.0
11:15 8.8 84.5 1012.4 9.5 NNE 16.9 NNE 0.0 151.6 109.1
11:20 8.9 85.2 1012.4 8.7 NE 14.2 NE 0.0 151.6 111.8
11:25 8.9 85.4 1012.4 8.7 NE 19.6 NE 0.0 151.9 110.4
11:30 9.0 85.3 1012.4 8.4 NE 14.2 NNE 0.0 151.9 107.7
11:35 9.0 84.9 1012.4 8.4 NE 14.2 NE 0.0 151.5 115.7
11:40 9.1 85.4 1012.3 7.9 NNE 14.2 NE 0.0 151.0 127.7
11:45 9.2 85.0 1012.3 7.6 NE 14.2 NE 0.0 150.2 138.7
11:50 9.3 84.2 1012.3 8.5 NE 14.2 NE 0.0 149.2 141.6
11:55 9.4 83.8 1012.3 7.2 NE 14.2 NE 0.0 148.2 140.6
12:00 9.5 83.8 1012.3 6.2 NE 11.5 NNE 0.0 147.2 138.0
12:05 9.6 83.7 1012.3 5.0 NNE 11.5 NNE 0.0 146.3 140.8
12:10 9.7 83.2 1012.3 2.1 NNE 6.1 NE 0.0 145.4 145.5
12:15 9.8 81.7 1012.3 2.7 ENE 8.8 E 0.0 144.4 152.4
12:20 9.9 81.9 1012.3 3.4 ENE 11.5 ENE 0.0 143.4 154.6
12:25 10.0 80.9 1012.3 8.1 ENE 14.2 E 0.0 142.3 142.7
12:30 10.0 80.7 1012.4 5.4 ENE 14.2 ENE 0.0 141.2 126.2
12:35 10.0 80.7 1012.4 6.9 ENE 11.5 E 0.0 140.3 108.5
12:40 10.0 80.7 1012.4 4.8 E 8.8 ENE 0.0 139.4 97.5
12:45 10.1 80.9 1012.4 3.9 ENE 8.8 ENE 0.0 138.7 91.9
12:50 10.0 80.9 1012.4 8.1 ENE 14.2 E 0.0 137.9 83.8
12:55 10.0 80.9 1012.5 6.6 NE 14.2 NE 0.0 137.2 80.1
13:00 10.0 80.5 1012.5 8.3 ENE 14.2 ENE 0.0 136.5 80.2
13:05 10.0 80.4 1012.5 8.7 ENE 19.6 ENE 0.0 135.8 75.7
13:10 10.0 81.0 1012.4 5.3 NE 8.8 NE 0.0 135.2 78.1
13:15 10.0 81.0 1012.5 3.6 ENE 8.8 E 0.0 134.6 86.6
13:20 10.0 81.6 1012.4 4.3 NE 8.8 NNE 0.0 134.4 101.9
13:25 10.0 80.9 1012.4 6.7 ENE 14.2 NE 0.0 133.7 113.0
13:30 10.1 81.0 1012.5 7.0 E 14.2 E 0.0 133.0 111.7
13:35 10.1 80.7 1012.5 8.5 E 19.6 E 0.0 132.3 119.3
13:40 10.1 80.6 1012.5 5.7 E 11.5 ENE 0.0 131.6 124.0
13:45 10.2 80.7 1012.4 3.9 E 11.5 E 0.0 130.9 130.6
13:50 10.3 80.2 1012.4 6.4 ENE 11.5 ENE 0.0 130.2 126.4
13:55 10.3 80.6 1012.4 6.4 ENE 14.2 ENE 0.0 129.4 121.7
14:00 10.2 80.6 1012.3 6.8 ENE 11.5 ENE 0.0 128.7 120.8
14:05 10.3 80.9 1012.3 7.7 ENE 14.2 ENE 0.0 128.1 142.5
14:10 10.4 81.5 1012.2 5.7 E 11.5 E 0.0 127.5 142.6
14:15 10.3 80.5 1012.2 9.3 ENE 19.6 E 0.0 126.8 124.7
14:20 10.3 80.3 1012.1 3.4 ENE 8.8 ENE 0.0 126.1 103.6
14:25 10.3 80.8 1012.1 4.3 E 11.5 ESE 0.0 125.7 98.6
14:30 10.3 80.7 1012.2 4.3 E 8.8 ESE 0.0 125.2 89.7
14:35 10.3 80.4 1012.2 6.0 E 11.5 ESE 0.0 124.7 89.8
14:40 10.2 80.8 1012.2 4.9 ESE 11.5 SE 0.0 124.3 104.6
14:45 10.2 80.8 1012.3 5.2 E 11.5 SE 0.0 123.8 124.8
14:50 10.3 80.4 1012.2 5.3 E 11.5 ENE 0.0 123.2 145.7
14:55 10.4 79.9 1012.2 5.8 E 16.9 ENE 0.0 122.6 140.6
15:00 10.4 79.6 1012.2 6.4 E 19.6 ENE 0.0 121.9 109.3
15:05 10.4 79.4 1012.2 4.0 E 11.5 ESE 0.0 121.3 93.0
15:10 10.4 79.8 1012.3 5.7 E 16.9 ESE 0.0 120.9 80.2
15:15 10.4 79.6 1012.3 6.4 E 16.9 ENE 0.0 120.4 76.1
15:20 10.3 80.0 1012.3 6.5 E 16.9 ESE 0.0 120.2 86.1
15:25 10.3 80.1 1012.3 5.6 ESE 14.2 ENE 0.0 120.3 114.6
15:30 10.3 80.9 1012.3 8.0 ENE 19.6 E 0.0 120.7 115.6
15:35 10.2 82.0 1012.3 10.3 ENE 27.7 ENE 0.0 121.7 101.3
15:40 10.0 82.8 1012.2 10.8 ENE 22.3 E 0.0 123.8 94.6
15:45 9.9 83.7 1012.2 9.9 ENE 16.9 E 0.0 124.7 73.2
15:50 9.8 84.4 1012.2 9.8 NE 19.6 NE 0.0 124.7 74.7
15:55 9.7 85.5 1012.2 9.1 ENE 16.9 NE 0.0 124.6 82.8
16:00 9.7 86.0 1012.3 7.2 ENE 14.2 NE 0.0 124.2 81.5
16:05 9.6 86.2 1012.3 6.8 ENE 14.2 NE 0.0 123.7 77.9
16:10 9.6 85.7 1012.2 11.2 ENE 22.3 E 0.0 123.2 74.3
16:15 9.6 85.6 1012.2 10.6 ENE 25.0 ENE 0.0 122.8 78.6
16:20 9.6 85.4 1012.2 10.5 ENE 16.9 ENE 0.0 122.6 74.3
16:25 9.5 86.6 1012.2 9.3 ENE 16.9 E 0.0 122.6 66.3
16:30 9.4 87.0 1012.3 9.8 ENE 19.6 NE 0.0 122.9 56.6
16:35 9.3 87.6 1012.3 9.2 ENE 16.9 ENE 0.0 123.3 43.9
16:40 9.3 87.8 1012.3 9.0 ENE 14.2 ENE 0.0 123.5 33.2
16:45 9.2 87.8 1012.4 9.2 ENE 19.6 ENE 0.0 123.5 28.9
16:50 9.2 88.1 1012.5 6.3 E 16.9 ENE 0.0 123.5 25.7
16:55 9.1 88.0 1012.5 8.6 ENE 14.2 ENE 0.0 123.9 25.2
17:00 9.1 88.2 1012.5 7.4 ENE 16.9 NNE 0.0 124.3 25.0
17:05 9.1 87.8 1012.5 7.4 ENE 19.6 ENE 0.0 124.6 22.7
17:10 9.0 87.7 1012.6 9.4 ENE 16.9 E 0.0 124.6 21.3
17:15 9.0 87.2 1012.6 11.4 ENE 22.3 ENE 0.0 124.7 21.7
17:20 8.9 87.7 1012.6 8.2 ENE 14.2 ENE 0.0 125.0 19.5
17:25 8.8 88.7 1012.7 6.9 ENE 19.6 ENE 0.0 125.6 15.0
17:30 8.7 89.7 1012.7 8.5 ENE 16.9 ENE 0.0 126.8 12.6
17:35 8.6 90.2 1012.7 7.2 ENE 16.9 ENE 0.0 128.0 11.2
17:40 8.5 90.8 1012.7 7.8 ENE 14.2 NE 0.0 129.7 10.3
17:45 8.4 91.5 1012.7 6.4 ENE 11.5 ENE 0.0 132.0 8.3
17:50 8.4 92.2 1012.8 6.1 ENE 14.2 ENE 0.1 134.1 6.7
17:55 8.3 92.4 1012.8 6.8 ENE 11.5 ENE 0.0 136.4 5.1
18:00 8.2 92.6 1012.8 5.1 ENE 11.5 ENE 0.0 138.9 3.2
18:05 8.2 92.9 1012.9 5.1 ENE 14.2 ENE 0.0 141.7 1.6
18:10 8.1 92.9 1013.0 6.2 ENE 14.2 NNE 0.0 144.3 0.6
18:15 8.1 92.7 1013.1 6.4 ENE 14.2 NE 0.0 147.0 0.2
18:20 8.0 92.5 1013.1 7.4 ENE 16.9 ENE 0.1 150.1 0.1
18:25 8.0 92.4 1013.2 6.0 E 16.9 ENE 0.0 152.9 0.1
18:30 7.9 92.3 1013.2 8.3 ENE 14.2 NE 0.0 157.6 0.0
18:35 7.9 92.1 1013.3 8.7 ENE 16.9 NE 0.1 162.5 0.0
18:40 7.8 92.5 1013.3 6.1 ENE 11.5 E 0.0 165.7 0.0
18:45 7.8 92.8 1013.4 6.9 ENE 14.2 NE 0.0 168.1 0.0
18:50 7.8 92.6 1013.5 7.4 ENE 14.2 ENE 0.1 171.0 0.0
18:55 7.7 92.8 1013.6 6.2 ENE 14.2 ENE 0.0 172.2 0.0
19:00 7.7 92.7 1013.6 9.4 ENE 19.6 E 0.0 173.8 0.0
19:05 7.7 92.2 1013.7 8.3 ENE 16.9 ENE 0.0 175.4 0.0
19:10 7.6 92.6 1013.8 5.9 NE 14.2 NE 0.1 178.3 0.0
19:15 7.6 93.3 1013.8 4.6 NE 11.5 ENE 0.0 181.6 0.0
19:20 7.5 93.7 1013.9 6.3 ENE 14.2 ENE 0.1 184.8 0.0
19:25 7.4 94.0 1013.9 4.7 ENE 8.8 ENE 0.0 189.9 0.0
19:30 7.4 94.2 1013.9 7.9 ENE 16.9 ENE 0.1 192.9 0.0
19:35 7.4 94.4 1013.9 5.1 NE 11.5 NE 0.0 194.6 0.0
19:40 7.3 94.6 1013.9 3.7 NE 11.5 ESE 0.0 195.9 0.0
19:45 7.3 94.9 1013.9 3.3 NE 11.5 NE 0.0 197.1 0.0
19:50 7.3 95.1 1013.9 5.6 NE 11.5 NE 0.0 197.8 0.0
19:55 7.3 95.2 1013.9 3.6 NE 8.8 NE 0.0 198.2 0.0
20:00 7.3 95.2 1014.0 4.2 NE 11.5 ENE 0.0 198.5 0.0
20:05 7.3 95.3 1014.0 4.5 NE 11.5 NE 0.0 198.6 0.0
20:10 7.3 95.4 1014.0 3.1 NE 8.8 NE 0.1 199.2 0.0
20:15 7.2 95.5 1014.0 2.0 ENE 8.8 E 0.0 199.9 0.0
20:20 7.2 95.7 1014.0 4.1 NE 11.5 ENE 0.0 200.3 0.0
20:25 7.2 95.8 1014.1 3.3 NE 8.8 NNE 0.0 200.2 0.0
20:30 7.2 95.7 1014.1 3.8 NE 8.8 ENE 0.0 200.1 0.0
20:35 7.3 95.6 1014.1 4.8 NE 11.5 ENE 0.0 200.0 0.0
20:40 7.3 95.5 1014.1 5.0 NE 8.8 NE 0.0 199.9 0.0
20:45 7.4 95.4 1014.1 5.5 NE 11.5 NNE 0.0 199.8 0.0
20:50 7.4 95.2 1014.1 5.8 NNE 14.2 NNE 0.0 199.6 0.0
20:55 7.4 95.1 1014.2 3.4 NNE 6.1 NE 0.0 199.5 0.0
21:00 7.4 95.0 1014.2 4.0 N 11.5 NNE 0.0 199.4 0.0
21:05 7.4 94.9 1014.2 3.3 N 11.5 NNW 0.0 199.3 0.0
Màxima 10.5 97.5 1014.2 12.5 ENE 27.7 ENE 0.1 244.5 310.7
Mínima 4.4 79.4 1011.4 0.0
Total 0.8